East Orange, Vermont
Current Conditions -  °F | °C
As of 4:51 AM on Tuesday 21 Oct 2014 (Local Time) from KMPV Reporting Station
Light Rain Light Rain  
Wind Chill:   Ceiling: 4100
Heat Index:   Visibility: 7mi
Dew Point:   Wind: 0mph
Humidity: 97%   Direction: NA
Pressure: 29.98"   Gusts: NA
Location:  44.1344°N, 72.2538°W
Report Text: KMPV 210851Z AUTO 00000KT 7SM -RA BKN041 OVC060 04/04 A2998 RMK AO2 SLP161 P0006 60006 T00440039 53005 $
Loading
Personal Weather Stations






























Interactive Weather Map
Tropical Storm Tracking
New forecast layout! Learn more

10-Day Weather Forecast

Advertisements
Track Severe Weather on mobile